EGTE

Exeter International Airport

Exeter, United Kingdom
METAR EGTE 211520Z 16010KT 9999 FEW035 18/12 Q1015
Observed Flight Rules
Apr-21 @ 15:20 UTC (17 minutes ago) Visual Flight Rules
Wind Visibility Clouds
160° at 10 knots 10,000+ meters
  • Few at 3,500' AGL
Temperatures Readings
Current 18°C / 64°F
Dewpoint 12°C / 54°F
Humidity 68%
Altimeter 29.97" Hg
Pressure 1015 hPa
Elevation 30
METAR EGTE 211520Z 16010KT 9999 FEW035 18/12 Q1015
Observed Flight Rules
Apr-21 @ 15:20 UTC
(17 minutes ago)
VFR
Wind Visibility
160° at 10 knots 10,000+ meters
Clouds
  • Few at 3,500' AGL
Temperature Dewpoint
18°C / 64°F 12°C / 54°F
Humidity Altimeter Pressure
68% 29.97" Hg 1015 hPa